sensor_id;sensor_type;location;lat;lon;timestamp;P1;durP1;ratioP1;P2;durP2;ratioP2
76262;SDS011;65080;50.908;6.916;2023-01-24T00:01:17;8.40;;;6.33;;
76262;SDS011;65080;50.908;6.916;2023-01-24T00:03:46;7.90;;;6.53;;
76262;SDS011;65080;50.908;6.916;2023-01-24T00:06:14;8.47;;;6.70;;
76262;SDS011;65080;50.908;6.916;2023-01-24T00:08:43;7.33;;;5.80;;
76262;SDS011;65080;50.908;6.916;2023-01-24T00:11:12;8.87;;;6.23;;
76262;SDS011;65080;50.908;6.916;2023-01-24T00:13:40;7.43;;;6.10;;
76262;SDS011;65080;50.908;6.916;2023-01-24T00:16:12;9.20;;;6.30;;
76262;SDS011;65080;50.908;6.916;2023-01-24T00:18:41;6.93;;;6.13;;
76262;SDS011;65080;50.908;6.916;2023-01-24T00:21:11;7.93;;;6.30;;
76262;SDS011;65080;50.908;6.916;2023-01-24T00:23:41;7.30;;;5.97;;
76262;SDS011;65080;50.908;6.916;2023-01-24T00:26:10;6.83;;;5.20;;
76262;SDS011;65080;50.908;6.916;2023-01-24T00:28:39;7.07;;;5.70;;
76262;SDS011;65080;50.908;6.916;2023-01-24T00:31:07;7.37;;;6.20;;
76262;SDS011;65080;50.908;6.916;2023-01-24T00:33:37;6.60;;;5.73;;
76262;SDS011;65080;50.908;6.916;2023-01-24T00:36:05;7.73;;;6.43;;
76262;SDS011;65080;50.908;6.916;2023-01-24T00:38:34;6.20;;;5.13;;
76262;SDS011;65080;50.908;6.916;2023-01-24T00:41:03;6.57;;;5.53;;
76262;SDS011;65080;50.908;6.916;2023-01-24T00:43:31;7.60;;;6.00;;
76262;SDS011;65080;50.908;6.916;2023-01-24T00:46:00;7.17;;;5.77;;
76262;SDS011;65080;50.908;6.916;2023-01-24T00:48:31;6.50;;;5.50;;
76262;SDS011;65080;50.908;6.916;2023-01-24T00:51:01;6.20;;;5.23;;
76262;SDS011;65080;50.908;6.916;2023-01-24T00:53:30;6.40;;;5.40;;
76262;SDS011;65080;50.908;6.916;2023-01-24T00:55:58;7.27;;;6.00;;
76262;SDS011;65080;50.908;6.916;2023-01-24T00:58:26;7.27;;;5.40;;
76262;SDS011;65080;50.908;6.916;2023-01-24T01:00:55;6.50;;;5.43;;
76262;SDS011;65080;50.908;6.916;2023-01-24T01:03:26;7.17;;;5.80;;
76262;SDS011;65080;50.908;6.916;2023-01-24T01:05:58;6.13;;;5.00;;
76262;SDS011;65080;50.908;6.916;2023-01-24T01:08:28;6.20;;;4.87;;
76262;SDS011;65080;50.908;6.916;2023-01-24T01:10:57;6.60;;;5.70;;
76262;SDS011;65080;50.908;6.916;2023-01-24T01:13:26;6.30;;;5.03;;
76262;SDS011;65080;50.908;6.916;2023-01-24T01:15:59;6.30;;;5.30;;
76262;SDS011;65080;50.908;6.916;2023-01-24T01:18:28;6.30;;;5.23;;
76262;SDS011;65080;50.908;6.916;2023-01-24T01:20:57;8.80;;;5.70;;
76262;SDS011;65080;50.908;6.916;2023-01-24T01:23:25;6.60;;;5.63;;
76262;SDS011;65080;50.908;6.916;2023-01-24T01:25:57;6.70;;;5.40;;
76262;SDS011;65080;50.908;6.916;2023-01-24T01:28:26;6.23;;;4.63;;
76262;SDS011;65080;50.908;6.916;2023-01-24T01:30:55;8.07;;;6.70;;
76262;SDS011;65080;50.908;6.916;2023-01-24T01:33:23;7.40;;;5.80;;
76262;SDS011;65080;50.908;6.916;2023-01-24T01:35:52;7.70;;;5.93;;
76262;SDS011;65080;50.908;6.916;2023-01-24T01:38:20;6.70;;;5.63;;
76262;SDS011;65080;50.908;6.916;2023-01-24T01:40:50;5.70;;;4.50;;
76262;SDS011;65080;50.908;6.916;2023-01-24T01:43:21;6.60;;;5.70;;
76262;SDS011;65080;50.908;6.916;2023-01-24T01:45:50;7.27;;;6.13;;
76262;SDS011;65080;50.908;6.916;2023-01-24T01:48:21;8.93;;;6.57;;
76262;SDS011;65080;50.908;6.916;2023-01-24T01:50:56;6.70;;;5.83;;
76262;SDS011;65080;50.908;6.916;2023-01-24T01:53:31;6.90;;;6.13;;
76262;SDS011;65080;50.908;6.916;2023-01-24T01:56:03;8.67;;;5.80;;
76262;SDS011;65080;50.908;6.916;2023-01-24T01:58:35;6.77;;;5.50;;
76262;SDS011;65080;50.908;6.916;2023-01-24T02:01:05;7.20;;;4.57;;
76262;SDS011;65080;50.908;6.916;2023-01-24T02:03:35;8.20;;;6.13;;
76262;SDS011;65080;50.908;6.916;2023-01-24T02:06:10;6.33;;;5.10;;
76262;SDS011;65080;50.908;6.916;2023-01-24T02:08:47;5.67;;;4.97;;
76262;SDS011;65080;50.908;6.916;2023-01-24T02:11:19;5.20;;;4.27;;
76262;SDS011;65080;50.908;6.916;2023-01-24T02:14:08;7.13;;;5.70;;
76262;SDS011;65080;50.908;6.916;2023-01-24T02:16:55;7.40;;;5.40;;
76262;SDS011;65080;50.908;6.916;2023-01-24T02:19:42;7.67;;;5.80;;
76262;SDS011;65080;50.908;6.916;2023-01-24T02:22:25;5.90;;;5.17;;
76262;SDS011;65080;50.908;6.916;2023-01-24T02:25:00;6.07;;;5.47;;
76262;SDS011;65080;50.908;6.916;2023-01-24T02:27:35;6.03;;;5.13;;
76262;SDS011;65080;50.908;6.916;2023-01-24T02:30:03;7.53;;;5.83;;
76262;SDS011;65080;50.908;6.916;2023-01-24T02:32:32;7.10;;;6.13;;
76262;SDS011;65080;50.908;6.916;2023-01-24T02:35:00;6.10;;;4.63;;
76262;SDS011;65080;50.908;6.916;2023-01-24T02:37:29;6.13;;;5.53;;
76262;SDS011;65080;50.908;6.916;2023-01-24T02:39:59;7.10;;;5.50;;
76262;SDS011;65080;50.908;6.916;2023-01-24T02:42:33;7.40;;;5.77;;
76262;SDS011;65080;50.908;6.916;2023-01-24T02:45:05;6.33;;;5.50;;
76262;SDS011;65080;50.908;6.916;2023-01-24T02:47:40;7.13;;;5.40;;
76262;SDS011;65080;50.908;6.916;2023-01-24T02:50:12;7.90;;;6.03;;
76262;SDS011;65080;50.908;6.916;2023-01-24T02:52:40;6.10;;;5.10;;
76262;SDS011;65080;50.908;6.916;2023-01-24T02:55:26;6.47;;;4.90;;
76262;SDS011;65080;50.908;6.916;2023-01-24T02:57:55;6.33;;;5.20;;
76262;SDS011;65080;50.908;6.916;2023-01-24T03:00:36;6.60;;;5.13;;
76262;SDS011;65080;50.908;6.916;2023-01-24T03:03:05;6.90;;;4.67;;
76262;SDS011;65080;50.908;6.916;2023-01-24T03:05:34;5.47;;;4.73;;
76262;SDS011;65080;50.908;6.916;2023-01-24T03:08:23;7.40;;;4.73;;
76262;SDS011;65080;50.908;6.916;2023-01-24T03:10:51;6.53;;;5.40;;
76262;SDS011;65080;50.908;6.916;2023-01-24T03:13:22;6.43;;;5.13;;
76262;SDS011;65080;50.908;6.916;2023-01-24T03:16:09;7.73;;;5.50;;
76262;SDS011;65080;50.908;6.916;2023-01-24T03:18:55;8.40;;;6.20;;
76262;SDS011;65080;50.908;6.916;2023-01-24T03:21:41;6.30;;;5.10;;
76262;SDS011;65080;50.908;6.916;2023-01-24T03:24:26;6.30;;;5.20;;
76262;SDS011;65080;50.908;6.916;2023-01-24T03:27:12;6.00;;;4.93;;
76262;SDS011;65080;50.908;6.916;2023-01-24T03:29:59;4.60;;;4.03;;
76262;SDS011;65080;50.908;6.916;2023-01-24T03:32:46;7.70;;;5.43;;
76262;SDS011;65080;50.908;6.916;2023-01-24T03:35:31;6.90;;;5.57;;
76262;SDS011;65080;50.908;6.916;2023-01-24T03:37:59;7.10;;;5.37;;
76262;SDS011;65080;50.908;6.916;2023-01-24T03:40:46;7.17;;;5.60;;
76262;SDS011;65080;50.908;6.916;2023-01-24T03:43:18;7.07;;;5.60;;
76262;SDS011;65080;50.908;6.916;2023-01-24T03:45:51;5.60;;;4.80;;
76262;SDS011;65080;50.908;6.916;2023-01-24T03:48:20;5.10;;;4.57;;
76262;SDS011;65080;50.908;6.916;2023-01-24T03:50:53;6.90;;;5.80;;
76262;SDS011;65080;50.908;6.916;2023-01-24T03:53:38;6.13;;;5.30;;
76262;SDS011;65080;50.908;6.916;2023-01-24T03:56:07;7.87;;;5.20;;
76262;SDS011;65080;50.908;6.916;2023-01-24T03:58:35;6.90;;;5.40;;
76262;SDS011;65080;50.908;6.916;2023-01-24T04:01:05;5.77;;;5.00;;
76262;SDS011;65080;50.908;6.916;2023-01-24T04:03:33;6.67;;;5.27;;
76262;SDS011;65080;50.908;6.916;2023-01-24T04:06:01;6.37;;;5.37;;
76262;SDS011;65080;50.908;6.916;2023-01-24T04:08:30;6.83;;;4.80;;
76262;SDS011;65080;50.908;6.916;2023-01-24T04:10:58;7.27;;;5.37;;
76262;SDS011;65080;50.908;6.916;2023-01-24T04:13:26;5.70;;;4.70;;
76262;SDS011;65080;50.908;6.916;2023-01-24T04:15:54;6.53;;;4.90;;
76262;SDS011;65080;50.908;6.916;2023-01-24T04:18:24;5.30;;;4.60;;
76262;SDS011;65080;50.908;6.916;2023-01-24T04:20:52;6.30;;;4.53;;
76262;SDS011;65080;50.908;6.916;2023-01-24T04:23:20;6.40;;;4.97;;
76262;SDS011;65080;50.908;6.916;2023-01-24T04:25:49;5.90;;;5.00;;
76262;SDS011;65080;50.908;6.916;2023-01-24T04:28:21;5.90;;;5.00;;
76262;SDS011;65080;50.908;6.916;2023-01-24T04:30:55;5.60;;;4.67;;
76262;SDS011;65080;50.908;6.916;2023-01-24T04:33:26;5.37;;;4.70;;
76262;SDS011;65080;50.908;6.916;2023-01-24T04:35:55;6.83;;;5.47;;
76262;SDS011;65080;50.908;6.916;2023-01-24T04:38:24;6.13;;;4.50;;
76262;SDS011;65080;50.908;6.916;2023-01-24T04:40:56;6.30;;;4.57;;
76262;SDS011;65080;50.908;6.916;2023-01-24T04:43:26;7.00;;;4.67;;
76262;SDS011;65080;50.908;6.916;2023-01-24T04:45:55;6.30;;;4.87;;
76262;SDS011;65080;50.908;6.916;2023-01-24T04:48:25;6.77;;;5.30;;
76262;SDS011;65080;50.908;6.916;2023-01-24T04:50:57;7.50;;;4.90;;
76262;SDS011;65080;50.908;6.916;2023-01-24T04:53:26;6.87;;;5.00;;
76262;SDS011;65080;50.908;6.916;2023-01-24T04:55:59;4.57;;;4.17;;
76262;SDS011;65080;50.908;6.916;2023-01-24T04:58:28;7.30;;;5.10;;
76262;SDS011;65080;50.908;6.916;2023-01-24T05:00:56;5.87;;;4.50;;
76262;SDS011;65080;50.908;6.916;2023-01-24T05:03:27;5.97;;;5.37;;
76262;SDS011;65080;50.908;6.916;2023-01-24T05:05:55;5.80;;;4.73;;
76262;SDS011;65080;50.908;6.916;2023-01-24T05:08:23;6.17;;;5.07;;
76262;SDS011;65080;50.908;6.916;2023-01-24T05:10:52;6.07;;;4.80;;
76262;SDS011;65080;50.908;6.916;2023-01-24T05:13:21;6.43;;;5.63;;
76262;SDS011;65080;50.908;6.916;2023-01-24T05:15:49;5.90;;;4.40;;
76262;SDS011;65080;50.908;6.916;2023-01-24T05:18:18;4.90;;;4.17;;
76262;SDS011;65080;50.908;6.916;2023-01-24T05:20:48;6.50;;;5.23;;
76262;SDS011;65080;50.908;6.916;2023-01-24T05:23:16;6.20;;;4.77;;
76262;SDS011;65080;50.908;6.916;2023-01-24T05:25:44;5.43;;;4.87;;
76262;SDS011;65080;50.908;6.916;2023-01-24T05:28:12;5.60;;;4.90;;
76262;SDS011;65080;50.908;6.916;2023-01-24T05:30:41;7.20;;;5.77;;
76262;SDS011;65080;50.908;6.916;2023-01-24T05:33:09;8.10;;;5.33;;
76262;SDS011;65080;50.908;6.916;2023-01-24T05:35:37;7.97;;;4.97;;
76262;SDS011;65080;50.908;6.916;2023-01-24T05:38:08;6.47;;;5.67;;
76262;SDS011;65080;50.908;6.916;2023-01-24T05:40:36;6.13;;;5.20;;
76262;SDS011;65080;50.908;6.916;2023-01-24T05:43:05;6.17;;;4.87;;
76262;SDS011;65080;50.908;6.916;2023-01-24T05:45:33;7.27;;;5.00;;
76262;SDS011;65080;50.908;6.916;2023-01-24T05:48:01;5.70;;;4.80;;
76262;SDS011;65080;50.908;6.916;2023-01-24T05:50:30;6.17;;;4.50;;
76262;SDS011;65080;50.908;6.916;2023-01-24T05:53:00;6.10;;;5.43;;
76262;SDS011;65080;50.908;6.916;2023-01-24T05:55:30;6.03;;;5.43;;
76262;SDS011;65080;50.908;6.916;2023-01-24T05:57:58;4.60;;;4.07;;
76262;SDS011;65080;50.908;6.916;2023-01-24T06:00:26;5.47;;;4.63;;
76262;SDS011;65080;50.908;6.916;2023-01-24T06:03:00;5.47;;;4.67;;
76262;SDS011;65080;50.908;6.916;2023-01-24T06:05:28;6.30;;;5.40;;
76262;SDS011;65080;50.908;6.916;2023-01-24T06:07:56;6.93;;;4.90;;
76262;SDS011;65080;50.908;6.916;2023-01-24T06:10:25;7.10;;;5.57;;
76262;SDS011;65080;50.908;6.916;2023-01-24T06:12:54;5.63;;;4.90;;
76262;SDS011;65080;50.908;6.916;2023-01-24T06:15:22;4.60;;;4.10;;
76262;SDS011;65080;50.908;6.916;2023-01-24T06:17:51;5.37;;;4.87;;
76262;SDS011;65080;50.908;6.916;2023-01-24T06:20:19;6.33;;;5.27;;
76262;SDS011;65080;50.908;6.916;2023-01-24T06:22:48;8.90;;;5.40;;
76262;SDS011;65080;50.908;6.916;2023-01-24T06:25:20;5.83;;;5.23;;
76262;SDS011;65080;50.908;6.916;2023-01-24T06:27:51;5.50;;;4.70;;
76262;SDS011;65080;50.908;6.916;2023-01-24T06:30:22;4.60;;;4.20;;
76262;SDS011;65080;50.908;6.916;2023-01-24T06:32:58;6.13;;;4.70;;
76262;SDS011;65080;50.908;6.916;2023-01-24T06:35:36;6.90;;;5.53;;
76262;SDS011;65080;50.908;6.916;2023-01-24T06:38:14;6.77;;;4.83;;
76262;SDS011;65080;50.908;6.916;2023-01-24T06:40:46;6.93;;;5.50;;
76262;SDS011;65080;50.908;6.916;2023-01-24T06:43:16;6.17;;;5.00;;
76262;SDS011;65080;50.908;6.916;2023-01-24T06:45:46;6.60;;;4.90;;
76262;SDS011;65080;50.908;6.916;2023-01-24T06:48:15;8.10;;;5.10;;
76262;SDS011;65080;50.908;6.916;2023-01-24T06:50:43;8.10;;;5.40;;
76262;SDS011;65080;50.908;6.916;2023-01-24T06:53:11;6.43;;;5.30;;
76262;SDS011;65080;50.908;6.916;2023-01-24T06:55:43;5.93;;;5.30;;
76262;SDS011;65080;50.908;6.916;2023-01-24T06:58:11;5.70;;;4.60;;
76262;SDS011;65080;50.908;6.916;2023-01-24T07:00:40;5.90;;;4.90;;
76262;SDS011;65080;50.908;6.916;2023-01-24T07:03:09;4.90;;;4.20;;
76262;SDS011;65080;50.908;6.916;2023-01-24T07:05:38;5.47;;;4.37;;
76262;SDS011;65080;50.908;6.916;2023-01-24T07:08:06;5.70;;;4.83;;
76262;SDS011;65080;50.908;6.916;2023-01-24T07:10:35;6.47;;;5.07;;
76262;SDS011;65080;50.908;6.916;2023-01-24T07:13:05;7.53;;;5.67;;
76262;SDS011;65080;50.908;6.916;2023-01-24T07:15:34;5.40;;;4.50;;
76262;SDS011;65080;50.908;6.916;2023-01-24T07:18:06;7.03;;;5.07;;
76262;SDS011;65080;50.908;6.916;2023-01-24T07:20:37;5.50;;;4.40;;
76262;SDS011;65080;50.908;6.916;2023-01-24T07:23:07;5.40;;;4.80;;
76262;SDS011;65080;50.908;6.916;2023-01-24T07:25:46;5.57;;;4.33;;
76262;SDS011;65080;50.908;6.916;2023-01-24T07:28:16;5.73;;;5.13;;
76262;SDS011;65080;50.908;6.916;2023-01-24T07:30:45;5.87;;;4.90;;
76262;SDS011;65080;50.908;6.916;2023-01-24T07:33:14;6.50;;;5.20;;
76262;SDS011;65080;50.908;6.916;2023-01-24T07:35:44;5.90;;;4.90;;
76262;SDS011;65080;50.908;6.916;2023-01-24T07:38:12;7.27;;;4.80;;
76262;SDS011;65080;50.908;6.916;2023-01-24T07:40:41;7.90;;;5.90;;
76262;SDS011;65080;50.908;6.916;2023-01-24T07:43:09;5.97;;;4.93;;
76262;SDS011;65080;50.908;6.916;2023-01-24T07:45:38;5.20;;;4.70;;
76262;SDS011;65080;50.908;6.916;2023-01-24T07:48:06;5.27;;;4.67;;
76262;SDS011;65080;50.908;6.916;2023-01-24T07:50:35;5.77;;;4.70;;
76262;SDS011;65080;50.908;6.916;2023-01-24T07:53:04;6.60;;;5.10;;
76262;SDS011;65080;50.908;6.916;2023-01-24T07:55:34;6.23;;;5.17;;
76262;SDS011;65080;50.908;6.916;2023-01-24T07:58:02;5.47;;;4.67;;
76262;SDS011;65080;50.908;6.916;2023-01-24T08:00:30;5.73;;;5.10;;
76262;SDS011;65080;50.908;6.916;2023-01-24T08:02:58;6.43;;;5.40;;
76262;SDS011;65080;50.908;6.916;2023-01-24T08:05:27;6.00;;;5.30;;
76262;SDS011;65080;50.908;6.916;2023-01-24T08:07:55;6.97;;;4.70;;
76262;SDS011;65080;50.908;6.916;2023-01-24T08:10:26;6.33;;;5.17;;
76262;SDS011;65080;50.908;6.916;2023-01-24T08:12:55;5.53;;;4.53;;
76262;SDS011;65080;50.908;6.916;2023-01-24T08:15:24;7.70;;;6.00;;
76262;SDS011;65080;50.908;6.916;2023-01-24T08:17:52;6.50;;;5.40;;
76262;SDS011;65080;50.908;6.916;2023-01-24T08:20:20;6.33;;;5.23;;
76262;SDS011;65080;50.908;6.916;2023-01-24T08:22:53;6.90;;;5.77;;
76262;SDS011;65080;50.908;6.916;2023-01-24T08:25:25;6.37;;;5.57;;
76262;SDS011;65080;50.908;6.916;2023-01-24T08:27:54;6.40;;;5.37;;
76262;SDS011;65080;50.908;6.916;2023-01-24T08:30:23;5.93;;;4.70;;
76262;SDS011;65080;50.908;6.916;2023-01-24T08:32:58;6.50;;;5.00;;
76262;SDS011;65080;50.908;6.916;2023-01-24T08:35:27;5.17;;;4.67;;
76262;SDS011;65080;50.908;6.916;2023-01-24T08:37:56;5.03;;;4.10;;
76262;SDS011;65080;50.908;6.916;2023-01-24T08:40:26;5.27;;;4.77;;
76262;SDS011;65080;50.908;6.916;2023-01-24T08:43:03;5.10;;;4.60;;
76262;SDS011;65080;50.908;6.916;2023-01-24T08:45:32;6.47;;;4.87;;
76262;SDS011;65080;50.908;6.916;2023-01-24T08:48:00;5.10;;;4.60;;
76262;SDS011;65080;50.908;6.916;2023-01-24T08:50:28;5.13;;;4.47;;
76262;SDS011;65080;50.908;6.916;2023-01-24T08:52:57;4.13;;;3.73;;
76262;SDS011;65080;50.908;6.916;2023-01-24T08:55:26;7.33;;;4.87;;
76262;SDS011;65080;50.908;6.916;2023-01-24T08:58:00;5.67;;;4.50;;
76262;SDS011;65080;50.908;6.916;2023-01-24T09:00:29;5.70;;;3.70;;
76262;SDS011;65080;50.908;6.916;2023-01-24T09:02:59;4.80;;;3.83;;
76262;SDS011;65080;50.908;6.916;2023-01-24T09:05:27;3.80;;;3.40;;
76262;SDS011;65080;50.908;6.916;2023-01-24T09:07:56;4.90;;;4.13;;
76262;SDS011;65080;50.908;6.916;2023-01-24T09:10:26;4.70;;;4.10;;
76262;SDS011;65080;50.908;6.916;2023-01-24T09:12:54;4.77;;;3.90;;
76262;SDS011;65080;50.908;6.916;2023-01-24T09:15:23;4.07;;;3.33;;
76262;SDS011;65080;50.908;6.916;2023-01-24T09:17:51;4.60;;;4.17;;
76262;SDS011;65080;50.908;6.916;2023-01-24T09:20:19;5.20;;;4.07;;
76262;SDS011;65080;50.908;6.916;2023-01-24T09:22:48;4.70;;;3.90;;
76262;SDS011;65080;50.908;6.916;2023-01-24T09:25:16;6.07;;;4.30;;
76262;SDS011;65080;50.908;6.916;2023-01-24T09:27:49;5.57;;;4.43;;
76262;SDS011;65080;50.908;6.916;2023-01-24T09:30:20;4.67;;;4.27;;
76262;SDS011;65080;50.908;6.916;2023-01-24T09:32:50;4.20;;;3.60;;
76262;SDS011;65080;50.908;6.916;2023-01-24T09:35:18;4.90;;;3.90;;
76262;SDS011;65080;50.908;6.916;2023-01-24T09:37:46;4.23;;;3.70;;
76262;SDS011;65080;50.908;6.916;2023-01-24T09:40:18;3.93;;;3.23;;
76262;SDS011;65080;50.908;6.916;2023-01-24T09:42:55;4.00;;;3.40;;
76262;SDS011;65080;50.908;6.916;2023-01-24T09:45:30;3.60;;;3.30;;
76262;SDS011;65080;50.908;6.916;2023-01-24T09:48:01;4.57;;;4.00;;
76262;SDS011;65080;50.908;6.916;2023-01-24T09:50:33;5.50;;;3.47;;
76262;SDS011;65080;50.908;6.916;2023-01-24T09:53:08;4.00;;;3.60;;
76262;SDS011;65080;50.908;6.916;2023-01-24T09:55:44;3.40;;;2.83;;
76262;SDS011;65080;50.908;6.916;2023-01-24T09:58:22;3.80;;;3.43;;
76262;SDS011;65080;50.908;6.916;2023-01-24T10:01:00;4.33;;;3.93;;
76262;SDS011;65080;50.908;6.916;2023-01-24T10:03:32;4.67;;;4.27;;
76262;SDS011;65080;50.908;6.916;2023-01-24T10:06:06;4.47;;;3.97;;
76262;SDS011;65080;50.908;6.916;2023-01-24T10:08:43;4.97;;;4.47;;
76262;SDS011;65080;50.908;6.916;2023-01-24T10:11:19;4.70;;;4.20;;
76262;SDS011;65080;50.908;6.916;2023-01-24T10:14:08;5.67;;;4.57;;
76262;SDS011;65080;50.908;6.916;2023-01-24T10:16:56;6.50;;;4.30;;
76262;SDS011;65080;50.908;6.916;2023-01-24T10:19:42;4.90;;;4.40;;
76262;SDS011;65080;50.908;6.916;2023-01-24T10:22:41;4.60;;;4.07;;
76262;SDS011;65080;50.908;6.916;2023-01-24T10:25:24;5.03;;;4.53;;
76262;SDS011;65080;50.908;6.916;2023-01-24T10:27:55;4.97;;;4.17;;
76262;SDS011;65080;50.908;6.916;2023-01-24T10:30:30;6.77;;;4.90;;
76262;SDS011;65080;50.908;6.916;2023-01-24T10:33:09;4.50;;;4.10;;
76262;SDS011;65080;50.908;6.916;2023-01-24T10:35:44;5.43;;;4.17;;
76262;SDS011;65080;50.908;6.916;2023-01-24T10:38:21;4.20;;;3.77;;
76262;SDS011;65080;50.908;6.916;2023-01-24T10:40:50;5.00;;;4.50;;
76262;SDS011;65080;50.908;6.916;2023-01-24T10:43:20;4.50;;;4.10;;
76262;SDS011;65080;50.908;6.916;2023-01-24T10:45:57;4.43;;;4.00;;
76262;SDS011;65080;50.908;6.916;2023-01-24T10:48:35;4.27;;;3.80;;
76262;SDS011;65080;50.908;6.916;2023-01-24T10:51:12;4.70;;;4.17;;
76262;SDS011;65080;50.908;6.916;2023-01-24T10:53:43;6.13;;;4.00;;
76262;SDS011;65080;50.908;6.916;2023-01-24T10:56:12;5.17;;;4.10;;
76262;SDS011;65080;50.908;6.916;2023-01-24T10:58:42;10.53;;;4.90;;
76262;SDS011;65080;50.908;6.916;2023-01-24T11:01:23;5.77;;;4.93;;
76262;SDS011;65080;50.908;6.916;2023-01-24T11:03:58;5.20;;;4.57;;
76262;SDS011;65080;50.908;6.916;2023-01-24T11:06:39;5.33;;;4.27;;
76262;SDS011;65080;50.908;6.916;2023-01-24T11:09:09;7.63;;;6.03;;
76262;SDS011;65080;50.908;6.916;2023-01-24T11:11:40;6.00;;;4.93;;
76262;SDS011;65080;50.908;6.916;2023-01-24T11:14:13;5.73;;;4.77;;
76262;SDS011;65080;50.908;6.916;2023-01-24T11:16:44;6.43;;;5.33;;
76262;SDS011;65080;50.908;6.916;2023-01-24T11:19:22;5.83;;;4.63;;
76262;SDS011;65080;50.908;6.916;2023-01-24T11:21:54;6.50;;;5.70;;
76262;SDS011;65080;50.908;6.916;2023-01-24T11:24:23;6.33;;;5.13;;
76262;SDS011;65080;50.908;6.916;2023-01-24T11:26:54;5.87;;;4.37;;
76262;SDS011;65080;50.908;6.916;2023-01-24T11:29:29;6.27;;;4.97;;
76262;SDS011;65080;50.908;6.916;2023-01-24T11:32:04;6.97;;;5.53;;
76262;SDS011;65080;50.908;6.916;2023-01-24T11:34:56;6.30;;;4.97;;
76262;SDS011;65080;50.908;6.916;2023-01-24T11:37:33;11.63;;;6.00;;
76262;SDS011;65080;50.908;6.916;2023-01-24T11:40:14;5.63;;;4.80;;
76262;SDS011;65080;50.908;6.916;2023-01-24T11:42:59;5.57;;;4.93;;
76262;SDS011;65080;50.908;6.916;2023-01-24T11:45:54;5.63;;;5.00;;
76262;SDS011;65080;50.908;6.916;2023-01-24T11:48:30;9.40;;;5.03;;
76262;SDS011;65080;50.908;6.916;2023-01-24T11:51:07;5.80;;;5.10;;
76262;SDS011;65080;50.908;6.916;2023-01-24T11:53:49;6.60;;;5.47;;
76262;SDS011;65080;50.908;6.916;2023-01-24T11:56:28;6.10;;;5.20;;
76262;SDS011;65080;50.908;6.916;2023-01-24T11:59:08;6.70;;;5.60;;
76262;SDS011;65080;50.908;6.916;2023-01-24T12:01:50;6.07;;;4.77;;
76262;SDS011;65080;50.908;6.916;2023-01-24T12:04:38;6.00;;;5.40;;
76262;SDS011;65080;50.908;6.916;2023-01-24T12:07:19;6.67;;;5.40;;
76262;SDS011;65080;50.908;6.916;2023-01-24T12:09:55;6.83;;;4.83;;
76262;SDS011;65080;50.908;6.916;2023-01-24T12:12:35;5.97;;;5.37;;
76262;SDS011;65080;50.908;6.916;2023-01-24T12:15:23;7.20;;;5.40;;
76262;SDS011;65080;50.908;6.916;2023-01-24T12:18:08;6.73;;;5.73;;
76262;SDS011;65080;50.908;6.916;2023-01-24T12:21:01;5.90;;;4.87;;
76262;SDS011;65080;50.908;6.916;2023-01-24T12:23:34;10.73;;;5.30;;
76262;SDS011;65080;50.908;6.916;2023-01-24T12:26:10;6.43;;;5.27;;
76262;SDS011;65080;50.908;6.916;2023-01-24T12:28:43;6.37;;;5.40;;
76262;SDS011;65080;50.908;6.916;2023-01-24T12:31:19;5.30;;;4.80;;
76262;SDS011;65080;50.908;6.916;2023-01-24T12:33:55;5.60;;;4.90;;
76262;SDS011;65080;50.908;6.916;2023-01-24T12:36:32;8.23;;;5.63;;
76262;SDS011;65080;50.908;6.916;2023-01-24T12:39:10;6.60;;;5.90;;
76262;SDS011;65080;50.908;6.916;2023-01-24T12:41:41;6.23;;;5.43;;
76262;SDS011;65080;50.908;6.916;2023-01-24T12:44:23;5.90;;;5.30;;
76262;SDS011;65080;50.908;6.916;2023-01-24T12:46:59;7.90;;;5.47;;
76262;SDS011;65080;50.908;6.916;2023-01-24T12:49:39;7.40;;;4.83;;
76262;SDS011;65080;50.908;6.916;2023-01-24T12:52:22;6.30;;;5.20;;
76262;SDS011;65080;50.908;6.916;2023-01-24T12:54:56;5.47;;;4.97;;
76262;SDS011;65080;50.908;6.916;2023-01-24T12:57:30;5.30;;;4.80;;
76262;SDS011;65080;50.908;6.916;2023-01-24T13:00:05;9.10;;;5.47;;
76262;SDS011;65080;50.908;6.916;2023-01-24T13:02:50;5.73;;;5.13;;
76262;SDS011;65080;50.908;6.916;2023-01-24T13:05:44;6.30;;;5.60;;
76262;SDS011;65080;50.908;6.916;2023-01-24T13:08:20;6.13;;;5.43;;
76262;SDS011;65080;50.908;6.916;2023-01-24T13:11:06;5.37;;;4.80;;
76262;SDS011;65080;50.908;6.916;2023-01-24T13:13:45;6.23;;;5.10;;
76262;SDS011;65080;50.908;6.916;2023-01-24T13:16:30;5.73;;;4.90;;
76262;SDS011;65080;50.908;6.916;2023-01-24T13:19:11;6.47;;;4.90;;
76262;SDS011;65080;50.908;6.916;2023-01-24T13:21:51;7.70;;;6.00;;
76262;SDS011;65080;50.908;6.916;2023-01-24T13:24:31;5.90;;;5.00;;
76262;SDS011;65080;50.908;6.916;2023-01-24T13:27:13;5.80;;;5.10;;
76262;SDS011;65080;50.908;6.916;2023-01-24T13:30:02;6.50;;;5.30;;
76262;SDS011;65080;50.908;6.916;2023-01-24T13:32:42;6.90;;;6.20;;
76262;SDS011;65080;50.908;6.916;2023-01-24T13:35:13;6.10;;;5.40;;
76262;SDS011;65080;50.908;6.916;2023-01-24T13:37:48;6.17;;;5.53;;
76262;SDS011;65080;50.908;6.916;2023-01-24T13:40:20;5.17;;;4.60;;
76262;SDS011;65080;50.908;6.916;2023-01-24T13:42:51;6.63;;;5.70;;
76262;SDS011;65080;50.908;6.916;2023-01-24T13:51:27;6.20;;;5.50;;
76262;SDS011;65080;50.908;6.916;2023-01-24T13:54:02;5.87;;;5.03;;
76262;SDS011;65080;50.908;6.916;2023-01-24T13:56:34;6.53;;;5.60;;
76262;SDS011;65080;50.908;6.916;2023-01-24T13:59:38;7.50;;;6.47;;
76262;SDS011;65080;50.908;6.916;2023-01-24T14:02:22;6.30;;;5.70;;
76262;SDS011;65080;50.908;6.916;2023-01-24T14:04:54;8.30;;;5.67;;
76262;SDS011;65080;50.908;6.916;2023-01-24T14:07:27;7.73;;;5.77;;
76262;SDS011;65080;50.908;6.916;2023-01-24T14:09:57;7.10;;;6.00;;
76262;SDS011;65080;50.908;6.916;2023-01-24T14:12:28;7.93;;;5.87;;
76262;SDS011;65080;50.908;6.916;2023-01-24T14:15:00;10.17;;;5.53;;
76262;SDS011;65080;50.908;6.916;2023-01-24T14:17:44;7.27;;;5.97;;
76262;SDS011;65080;50.908;6.916;2023-01-24T14:20:22;7.67;;;6.40;;
76262;SDS011;65080;50.908;6.916;2023-01-24T14:23:10;6.27;;;5.57;;
76262;SDS011;65080;50.908;6.916;2023-01-24T14:25:45;6.67;;;5.13;;
76262;SDS011;65080;50.908;6.916;2023-01-24T14:28:23;6.33;;;5.70;;
76262;SDS011;65080;50.908;6.916;2023-01-24T14:30:58;5.97;;;5.37;;
76262;SDS011;65080;50.908;6.916;2023-01-24T14:33:32;7.27;;;5.53;;
76262;SDS011;65080;50.908;6.916;2023-01-24T14:36:20;5.23;;;4.70;;
76262;SDS011;65080;50.908;6.916;2023-01-24T14:41:39;7.53;;;5.67;;
76262;SDS011;65080;50.908;6.916;2023-01-24T14:44:16;5.90;;;5.20;;
76262;SDS011;65080;50.908;6.916;2023-01-24T14:46:51;6.23;;;5.40;;
76262;SDS011;65080;50.908;6.916;2023-01-24T14:49:28;6.10;;;5.10;;
76262;SDS011;65080;50.908;6.916;2023-01-24T14:51:59;6.70;;;5.40;;
76262;SDS011;65080;50.908;6.916;2023-01-24T14:54:43;6.40;;;5.37;;
76262;SDS011;65080;50.908;6.916;2023-01-24T14:57:19;5.33;;;4.83;;
76262;SDS011;65080;50.908;6.916;2023-01-24T14:59:59;7.63;;;5.80;;
76262;SDS011;65080;50.908;6.916;2023-01-24T15:02:29;7.50;;;5.93;;
76262;SDS011;65080;50.908;6.916;2023-01-24T15:04:58;6.60;;;5.90;;
76262;SDS011;65080;50.908;6.916;2023-01-24T15:07:26;6.03;;;5.43;;
76262;SDS011;65080;50.908;6.916;2023-01-24T15:09:54;6.13;;;5.53;;
76262;SDS011;65080;50.908;6.916;2023-01-24T15:12:24;6.73;;;5.70;;
76262;SDS011;65080;50.908;6.916;2023-01-24T15:14:55;7.50;;;6.50;;
76262;SDS011;65080;50.908;6.916;2023-01-24T15:17:27;6.60;;;4.80;;
76262;SDS011;65080;50.908;6.916;2023-01-24T15:19:57;6.53;;;5.60;;
76262;SDS011;65080;50.908;6.916;2023-01-24T15:22:27;7.63;;;6.27;;
76262;SDS011;65080;50.908;6.916;2023-01-24T15:24:59;5.83;;;5.13;;
76262;SDS011;65080;50.908;6.916;2023-01-24T15:27:33;7.20;;;5.70;;
76262;SDS011;65080;50.908;6.916;2023-01-24T15:30:12;6.40;;;5.47;;
76262;SDS011;65080;50.908;6.916;2023-01-24T15:32:44;6.57;;;5.67;;